createdAt,value
2022-09-24T00:01:51.826Z,13.30
2022-09-24T00:04:20.207Z,13.30
2022-09-24T00:06:50.149Z,13.40
2022-09-24T00:09:22.124Z,13.30
2022-09-24T00:11:51.616Z,13.30
2022-09-24T00:14:20.341Z,13.40
2022-09-24T00:16:48.338Z,13.40
2022-09-24T00:19:16.507Z,13.40
2022-09-24T00:21:45.147Z,13.40
2022-09-24T00:24:38.158Z,13.30
2022-09-24T00:27:06.373Z,13.40
2022-09-24T00:29:35.800Z,13.30
2022-09-24T00:32:05.569Z,13.40
2022-09-24T00:34:33.820Z,13.50
2022-09-24T00:37:02.078Z,13.50
2022-09-24T00:39:31.483Z,13.40
2022-09-24T00:41:59.548Z,13.50
2022-09-24T00:44:54.666Z,13.50
2022-09-24T00:47:35.910Z,13.40
2022-09-24T00:50:14.331Z,13.40
2022-09-24T00:52:46.393Z,13.40
2022-09-24T00:55:16.578Z,13.30
2022-09-24T00:57:46.105Z,13.30
2022-09-24T01:00:15.710Z,13.20
2022-09-24T01:02:47.893Z,13.10
2022-09-24T01:05:15.877Z,13.10
2022-09-24T01:07:43.919Z,13.10
2022-09-24T01:10:12.278Z,13.10
2022-09-24T01:12:48.238Z,13.10
2022-09-24T01:15:24.106Z,13.10
2022-09-24T01:18:03.090Z,12.90
2022-09-24T01:21:00.235Z,12.90
2022-09-24T01:23:49.004Z,12.70
2022-09-24T01:26:41.472Z,12.70
2022-09-24T01:29:32.370Z,12.60
2022-09-24T01:32:06.297Z,12.40
2022-09-24T01:34:40.231Z,12.10
2022-09-24T01:37:08.927Z,12.10
2022-09-24T01:39:40.066Z,12.10
2022-09-24T01:42:11.336Z,12.10
2022-09-24T01:44:44.678Z,12.20
2022-09-24T01:47:19.526Z,12.40
2022-09-24T01:49:48.047Z,12.50
2022-09-24T01:52:20.737Z,12.60
2022-09-24T01:54:52.540Z,12.80
2022-09-24T01:57:25.168Z,12.90
2022-09-24T01:59:58.406Z,12.80
2022-09-24T02:02:31.257Z,13.00
2022-09-24T02:05:03.981Z,12.90
2022-09-24T02:07:36.338Z,12.90
2022-09-24T02:10:04.594Z,13.00
2022-09-24T02:12:37.966Z,12.90
2022-09-24T02:15:12.882Z,13.00
2022-09-24T02:17:44.678Z,12.80
2022-09-24T02:20:16.362Z,12.60
2022-09-24T02:22:46.736Z,12.80
2022-09-24T02:25:19.569Z,12.60
2022-09-24T02:27:48.237Z,12.40
2022-09-24T02:30:17.954Z,12.50
2022-09-24T02:32:46.399Z,12.60
2022-09-24T02:35:13.643Z,12.40
2022-09-24T02:37:43.303Z,12.40
2022-09-24T02:40:14.079Z,12.40
2022-09-24T02:42:43.796Z,12.50
2022-09-24T02:45:14.546Z,12.50
2022-09-24T02:47:44.183Z,12.40
2022-09-24T02:50:12.175Z,12.50
2022-09-24T02:52:40.571Z,12.60
2022-09-24T02:55:09.243Z,12.70
2022-09-24T02:57:37.806Z,12.60
2022-09-24T03:00:06.681Z,12.60
2022-09-24T03:02:35.311Z,12.60
2022-09-24T03:05:05.134Z,12.70
2022-09-24T03:07:33.261Z,12.70
2022-09-24T03:10:01.327Z,12.70
2022-09-24T03:12:29.849Z,12.70
2022-09-24T03:14:57.835Z,12.70
2022-09-24T03:17:26.168Z,12.60
2022-09-24T03:19:54.271Z,12.60
2022-09-24T03:22:23.994Z,12.60
2022-09-24T03:24:52.327Z,12.60
2022-09-24T03:27:20.334Z,12.70
2022-09-24T03:30:05.905Z,12.60
2022-09-24T03:32:34.530Z,12.70
2022-09-24T03:35:03.034Z,12.60
2022-09-24T03:37:33.453Z,12.60
2022-09-24T03:40:01.560Z,12.70
2022-09-24T03:42:29.639Z,12.40
2022-09-24T03:44:58.906Z,12.50
2022-09-24T03:47:27.086Z,12.50
2022-09-24T03:49:55.177Z,12.60
2022-09-24T03:52:23.233Z,12.50
2022-09-24T03:54:52.788Z,12.50
2022-09-24T03:57:20.778Z,12.50
2022-09-24T03:59:49.324Z,12.50
2022-09-24T04:02:17.697Z,12.50
2022-09-24T04:04:45.769Z,12.50
2022-09-24T04:07:13.779Z,12.60
2022-09-24T04:09:42.395Z,12.50
2022-09-24T04:12:12.188Z,12.30
2022-09-24T04:14:40.405Z,12.40
2022-09-24T04:17:08.820Z,12.50
2022-09-24T04:19:37.304Z,12.40
2022-09-24T04:22:05.677Z,12.40
2022-09-24T04:24:33.963Z,12.40
2022-09-24T04:27:02.272Z,12.40
2022-09-24T04:29:31.643Z,12.50
2022-09-24T04:31:59.635Z,12.40
2022-09-24T04:34:27.846Z,12.40
2022-09-24T04:36:55.844Z,12.50
2022-09-24T04:39:26.802Z,12.60
2022-09-24T04:41:54.897Z,12.50
2022-09-24T04:44:23.853Z,12.40
2022-09-24T04:46:53.267Z,12.50
2022-09-24T04:49:21.548Z,12.60
2022-09-24T04:51:49.567Z,12.60
2022-09-24T04:54:18.219Z,12.50
2022-09-24T04:56:46.219Z,12.40
2022-09-24T04:59:14.491Z,12.40
2022-09-24T05:01:42.634Z,12.50
2022-09-24T05:04:12.057Z,12.50
2022-09-24T05:06:40.039Z,12.50
2022-09-24T05:09:12.449Z,12.60
2022-09-24T05:11:40.834Z,12.50
2022-09-24T05:14:08.878Z,12.30
2022-09-24T05:16:36.873Z,12.20
2022-09-24T05:19:05.979Z,12.30
2022-09-24T05:21:35.396Z,12.40
2022-09-24T05:24:03.788Z,12.40
2022-09-24T05:26:49.374Z,12.30
2022-09-24T05:29:17.697Z,12.20
2022-09-24T05:31:46.047Z,12.20
2022-09-24T05:34:15.026Z,12.30
2022-09-24T05:36:44.797Z,12.30
2022-09-24T05:39:14.595Z,12.30
2022-09-24T05:41:44.134Z,12.30
2022-09-24T05:44:12.226Z,12.30
2022-09-24T05:46:40.270Z,12.30
2022-09-24T05:49:08.300Z,12.30
2022-09-24T05:51:36.269Z,12.40
2022-09-24T05:54:05.951Z,12.40
2022-09-24T05:56:33.972Z,12.40
2022-09-24T05:59:02.489Z,12.40
2022-09-24T06:01:31.131Z,12.40
2022-09-24T06:03:59.856Z,12.40
2022-09-24T06:06:29.770Z,12.30
2022-09-24T06:08:57.941Z,12.30
2022-09-24T06:11:28.191Z,12.40
2022-09-24T06:13:56.163Z,12.40
2022-09-24T06:16:24.307Z,12.30
2022-09-24T06:18:52.387Z,12.20
2022-09-24T06:21:20.377Z,12.30
2022-09-24T06:23:49.886Z,12.50
2022-09-24T06:26:18.914Z,12.60
2022-09-24T06:28:48.304Z,12.70
2022-09-24T06:31:16.446Z,12.70
2022-09-24T06:33:44.497Z,12.60
2022-09-24T06:36:12.816Z,12.60
2022-09-24T06:38:41.298Z,12.60
2022-09-24T06:41:10.167Z,12.60
2022-09-24T06:43:38.647Z,12.80
2022-09-24T06:46:08.097Z,12.80
2022-09-24T06:48:38.524Z,12.80
2022-09-24T06:51:07.735Z,12.80
2022-09-24T06:53:35.776Z,12.90
2022-09-24T06:56:04.553Z,12.80
2022-09-24T06:58:33.710Z,12.70
2022-09-24T07:01:03.508Z,12.70
2022-09-24T07:03:34.521Z,12.70
2022-09-24T07:06:04.793Z,12.90
2022-09-24T07:08:33.021Z,12.80
2022-09-24T07:11:02.231Z,12.90
2022-09-24T07:13:30.824Z,12.80
2022-09-24T07:15:58.921Z,12.70
2022-09-24T07:18:27.336Z,12.90
2022-09-24T07:20:58.189Z,13.10
2022-09-24T07:23:27.922Z,13.10
2022-09-24T07:25:58.232Z,13.10
2022-09-24T07:28:26.896Z,13.30
2022-09-24T07:30:59.437Z,13.40
2022-09-24T07:33:28.162Z,13.40
2022-09-24T07:35:57.521Z,13.30
2022-09-24T07:38:25.644Z,13.30
2022-09-24T07:40:54.287Z,13.40
2022-09-24T07:43:22.817Z,13.50
2022-09-24T07:45:51.235Z,13.30
2022-09-24T07:48:19.241Z,13.30
2022-09-24T07:50:47.258Z,13.70
2022-09-24T07:53:17.017Z,14.00
2022-09-24T07:55:45.512Z,13.90
2022-09-24T07:58:14.904Z,13.60
2022-09-24T08:00:43.222Z,13.90
2022-09-24T08:03:11.766Z,14.00
2022-09-24T08:05:45.431Z,13.80
2022-09-24T08:08:14.203Z,14.10
2022-09-24T08:10:43.984Z,14.50
2022-09-24T08:13:12.173Z,14.50
2022-09-24T08:15:40.575Z,14.40
2022-09-24T08:18:09.042Z,14.90
2022-09-24T08:20:38.321Z,14.90
2022-09-24T08:23:09.990Z,14.70
2022-09-24T08:25:38.126Z,14.40
2022-09-24T08:28:09.193Z,14.40
2022-09-24T08:30:37.493Z,14.50
2022-09-24T08:33:07.302Z,14.60
2022-09-24T08:35:35.928Z,14.80
2022-09-24T08:38:04.549Z,14.90
2022-09-24T08:40:37.343Z,14.50
2022-09-24T08:43:17.875Z,14.30
2022-09-24T08:46:08.273Z,14.20
2022-09-24T08:48:39.858Z,14.60
2022-09-24T08:51:14.526Z,14.70
2022-09-24T08:53:49.454Z,14.80
2022-09-24T08:56:22.451Z,14.60
2022-09-24T08:58:55.795Z,14.60
2022-09-24T09:01:33.037Z,14.60
2022-09-24T09:04:06.222Z,14.60
2022-09-24T09:06:56.218Z,14.70
2022-09-24T09:09:27.118Z,14.80
2022-09-24T09:12:00.958Z,14.50
2022-09-24T09:14:42.230Z,14.50
2022-09-24T09:17:21.787Z,14.70
2022-09-24T09:19:56.695Z,14.90
2022-09-24T09:22:29.122Z,14.80
2022-09-24T09:25:04.283Z,14.90
2022-09-24T09:27:32.863Z,15.20
2022-09-24T09:30:09.169Z,15.40
2022-09-24T09:32:58.238Z,15.60
2022-09-24T09:35:34.260Z,15.00
2022-09-24T09:38:10.920Z,15.00
2022-09-24T09:40:47.242Z,15.10
2022-09-24T09:43:15.919Z,15.00
2022-09-24T09:45:53.647Z,15.30
2022-09-24T09:48:25.299Z,15.10
2022-09-24T09:50:56.803Z,15.30
2022-09-24T09:53:28.041Z,15.20
2022-09-24T09:55:57.676Z,15.20
2022-09-24T09:58:27.214Z,15.20
2022-09-24T10:01:06.214Z,15.50
2022-09-24T10:03:39.283Z,15.40
2022-09-24T10:06:08.802Z,15.60
2022-09-24T10:08:37.085Z,15.50
2022-09-24T10:11:07.663Z,15.70
2022-09-24T10:13:37.070Z,15.60
2022-09-24T10:16:10.849Z,15.40
2022-09-24T10:18:43.082Z,15.40
2022-09-24T10:21:13.166Z,15.40
2022-09-24T10:23:43.238Z,15.60
2022-09-24T10:26:12.202Z,15.50
2022-09-24T10:29:03.373Z,15.70
2022-09-24T10:31:36.193Z,15.50
2022-09-24T10:34:06.461Z,15.40
2022-09-24T10:36:34.542Z,15.70
2022-09-24T10:39:05.014Z,15.80
2022-09-24T10:41:35.965Z,15.70
2022-09-24T10:44:07.542Z,15.80
2022-09-24T10:46:51.706Z,16.30
2022-09-24T10:49:33.609Z,16.40
2022-09-24T10:52:09.177Z,16.30
2022-09-24T10:54:50.221Z,16.00
2022-09-24T10:57:30.212Z,16.20
2022-09-24T11:00:08.479Z,16.50
2022-09-24T11:03:32.721Z,16.30
2022-09-24T11:06:03.602Z,16.50
2022-09-24T11:08:52.202Z,16.70
2022-09-24T11:11:31.378Z,16.90
2022-09-24T11:14:12.781Z,16.70
2022-09-24T11:17:11.270Z,16.60
2022-09-24T11:20:05.391Z,16.40
2022-09-24T11:22:44.667Z,16.70
2022-09-24T11:25:31.090Z,17.20
2022-09-24T11:28:11.437Z,17.20
2022-09-24T11:30:48.221Z,16.60
2022-09-24T11:33:32.067Z,16.20
2022-09-24T11:36:24.192Z,16.50
2022-09-24T11:39:05.600Z,16.60
2022-09-24T11:41:45.941Z,17.10
2022-09-24T11:44:30.650Z,16.80
2022-09-24T11:47:13.751Z,16.40
2022-09-24T11:49:54.140Z,17.20
2022-09-24T11:52:33.172Z,16.70
2022-09-24T11:55:07.087Z,16.40
2022-09-24T11:57:40.686Z,16.50
2022-09-24T12:00:16.905Z,16.10
2022-09-24T12:02:50.289Z,16.60
2022-09-24T12:05:25.027Z,16.70
2022-09-24T12:07:58.139Z,16.50
2022-09-24T12:10:32.876Z,16.50
2022-09-24T12:13:12.489Z,16.90
2022-09-24T12:15:48.297Z,16.50
2022-09-24T12:18:21.120Z,16.30
2022-09-24T12:20:53.154Z,16.40
2022-09-24T12:23:28.151Z,16.40
2022-09-24T12:25:58.555Z,16.50
2022-09-24T12:28:51.794Z,16.60
2022-09-24T12:31:45.785Z,17.00
2022-09-24T12:34:20.094Z,16.80
2022-09-24T12:36:58.830Z,16.40
2022-09-24T12:39:32.461Z,16.30
2022-09-24T12:42:04.255Z,16.70
2022-09-24T12:44:40.883Z,16.50
2022-09-24T12:47:18.427Z,16.40
2022-09-24T12:49:51.864Z,16.40
2022-09-24T12:52:25.095Z,16.40
2022-09-24T12:55:01.092Z,16.70
2022-09-24T12:57:34.423Z,16.70
2022-09-24T13:00:05.158Z,16.80
2022-09-24T13:02:46.227Z,16.70
2022-09-24T13:05:20.008Z,16.40
2022-09-24T13:07:58.541Z,16.40
2022-09-24T13:10:30.283Z,16.50
2022-09-24T13:13:00.010Z,16.50
2022-09-24T13:15:33.889Z,16.30
2022-09-24T13:18:09.058Z,16.20
2022-09-24T13:20:39.909Z,16.20
2022-09-24T13:23:32.537Z,16.20
2022-09-24T13:26:04.910Z,16.20
2022-09-24T13:28:38.742Z,16.50
2022-09-24T13:31:20.565Z,16.70
2022-09-24T13:33:52.512Z,16.40
2022-09-24T13:36:27.311Z,16.20
2022-09-24T13:38:59.170Z,16.20
2022-09-24T13:41:38.975Z,16.20
2022-09-24T13:44:15.175Z,16.20
2022-09-24T13:46:47.139Z,16.40
2022-09-24T13:49:19.056Z,16.70
2022-09-24T13:51:58.334Z,16.30
2022-09-24T13:54:34.489Z,16.10
2022-09-24T13:57:15.323Z,16.40
2022-09-24T13:59:43.347Z,16.60
2022-09-24T14:02:29.870Z,16.30
2022-09-24T14:04:59.876Z,16.60
2022-09-24T14:07:28.943Z,16.90
2022-09-24T14:10:05.527Z,17.10
2022-09-24T14:12:35.123Z,17.20
2022-09-24T14:15:11.557Z,17.50
2022-09-24T14:17:39.550Z,17.30
2022-09-24T14:20:11.119Z,17.00
2022-09-24T14:22:42.811Z,16.90
2022-09-24T14:25:16.958Z,16.70
2022-09-24T14:27:49.704Z,16.70
2022-09-24T14:30:21.765Z,16.50
2022-09-24T14:32:54.755Z,16.60
2022-09-24T14:35:30.143Z,16.90
2022-09-24T14:38:04.390Z,16.90
2022-09-24T14:40:41.847Z,16.80
2022-09-24T14:43:18.769Z,16.80
2022-09-24T14:45:48.049Z,16.70
2022-09-24T14:48:26.687Z,16.60
2022-09-24T14:50:55.399Z,16.50
2022-09-24T14:53:26.943Z,16.60
2022-09-24T14:55:55.655Z,16.80
2022-09-24T14:58:27.033Z,16.70
2022-09-24T15:00:58.467Z,16.70
2022-09-24T15:03:33.313Z,16.70
2022-09-24T15:06:14.656Z,16.90
2022-09-24T15:08:43.312Z,17.00
2022-09-24T15:11:18.893Z,17.10
2022-09-24T15:13:59.673Z,17.30
2022-09-24T15:16:33.876Z,17.30
2022-09-24T15:19:20.108Z,17.30
2022-09-24T15:21:49.934Z,17.20
2022-09-24T15:24:19.722Z,17.20
2022-09-24T15:26:50.193Z,17.20
2022-09-24T15:29:24.604Z,17.10
2022-09-24T15:31:53.497Z,17.20
2022-09-24T15:34:21.552Z,17.10
2022-09-24T15:36:50.539Z,17.10
2022-09-24T15:39:19.685Z,17.10
2022-09-24T15:41:47.991Z,17.10
2022-09-24T15:44:23.361Z,17.00
2022-09-24T15:46:52.513Z,17.00
2022-09-24T15:49:22.402Z,16.90
2022-09-24T15:51:51.968Z,16.90
2022-09-24T15:54:20.688Z,16.90
2022-09-24T15:56:52.383Z,17.00
2022-09-24T15:59:23.462Z,16.90
2022-09-24T16:01:54.240Z,16.90
2022-09-24T16:04:22.279Z,16.80
2022-09-24T16:06:51.026Z,16.80
2022-09-24T16:09:19.270Z,16.80
2022-09-24T16:11:48.358Z,16.60
2022-09-24T16:14:16.666Z,16.50
2022-09-24T16:16:46.096Z,16.60
2022-09-24T16:19:15.080Z,16.60
2022-09-24T16:21:43.057Z,16.50
2022-09-24T16:24:11.065Z,16.50
2022-09-24T16:26:39.185Z,16.50
2022-09-24T16:29:10.355Z,16.40
2022-09-24T16:31:38.746Z,16.40
2022-09-24T16:34:08.426Z,16.40
2022-09-24T16:36:36.412Z,16.40
2022-09-24T16:39:05.355Z,16.40
2022-09-24T16:41:34.637Z,16.30
2022-09-24T16:44:03.022Z,16.30
2022-09-24T16:46:31.441Z,16.20
2022-09-24T16:48:59.529Z,16.20
2022-09-24T16:51:29.008Z,16.20
2022-09-24T16:53:57.406Z,16.10
2022-09-24T16:56:25.987Z,16.10
2022-09-24T16:58:54.451Z,15.90
2022-09-24T17:01:23.273Z,15.80
2022-09-24T17:03:56.135Z,15.70
2022-09-24T17:06:26.275Z,15.80
2022-09-24T17:09:13.970Z,15.90
2022-09-24T17:11:42.538Z,15.70
2022-09-24T17:14:12.423Z,15.40
2022-09-24T17:16:41.287Z,15.30
2022-09-24T17:19:09.809Z,15.30
2022-09-24T17:21:39.897Z,15.40
2022-09-24T17:24:10.106Z,15.40
2022-09-24T17:26:39.661Z,15.40
2022-09-24T17:29:07.870Z,15.50
2022-09-24T17:31:35.980Z,15.40
2022-09-24T17:34:06.202Z,15.10
2022-09-24T17:36:35.410Z,15.00
2022-09-24T17:39:03.865Z,14.90
2022-09-24T17:41:33.310Z,14.80
2022-09-24T17:44:01.899Z,14.90
2022-09-24T17:46:31.705Z,14.70
2022-09-24T17:49:01.180Z,14.40
2022-09-24T17:51:32.652Z,14.30
2022-09-24T17:54:03.264Z,14.20
2022-09-24T17:56:33.641Z,14.30
2022-09-24T17:59:01.893Z,14.50
2022-09-24T18:01:33.561Z,14.60
2022-09-24T18:04:01.891Z,14.50
2022-09-24T18:06:33.085Z,14.30
2022-09-24T18:09:02.303Z,14.30
2022-09-24T18:11:33.931Z,14.30
2022-09-24T18:14:03.348Z,14.50
2022-09-24T18:16:33.204Z,14.60
2022-09-24T18:19:03.722Z,14.60
2022-09-24T18:21:32.583Z,14.50
2022-09-24T18:24:01.678Z,14.50
2022-09-24T18:26:34.287Z,14.40
2022-09-24T18:29:04.195Z,14.40
2022-09-24T18:31:33.349Z,14.30
2022-09-24T18:34:05.789Z,14.10
2022-09-24T18:36:35.518Z,14.00
2022-09-24T18:39:04.582Z,13.90
2022-09-24T18:41:34.801Z,14.00
2022-09-24T18:44:03.765Z,14.10
2022-09-24T18:46:33.600Z,14.00
2022-09-24T18:49:02.466Z,14.00
2022-09-24T18:51:33.487Z,14.10
2022-09-24T18:54:03.659Z,14.10
2022-09-24T18:56:33.465Z,14.20
2022-09-24T18:59:07.180Z,14.00
2022-09-24T19:01:38.247Z,13.90
2022-09-24T19:04:07.938Z,13.70
2022-09-24T19:06:36.577Z,13.80
2022-09-24T19:09:05.882Z,13.90
2022-09-24T19:11:35.389Z,13.80
2022-09-24T19:14:03.761Z,13.80
2022-09-24T19:16:32.504Z,13.90
2022-09-24T19:19:02.415Z,13.80
2022-09-24T19:21:30.859Z,13.70
2022-09-24T19:24:00.615Z,13.60
2022-09-24T19:26:31.088Z,13.60
2022-09-24T19:29:00.891Z,13.60
2022-09-24T19:31:31.385Z,13.60
2022-09-24T19:34:03.355Z,13.60
2022-09-24T19:36:32.861Z,13.80
2022-09-24T19:39:01.501Z,13.80
2022-09-24T19:41:29.690Z,13.70
2022-09-24T19:44:04.541Z,13.70
2022-09-24T19:46:35.767Z,13.60
2022-09-24T19:49:03.843Z,13.40
2022-09-24T19:51:33.624Z,13.60
2022-09-24T19:54:03.532Z,13.60
2022-09-24T19:56:32.176Z,13.70
2022-09-24T19:59:02.539Z,13.70
2022-09-24T20:01:32.603Z,13.70
2022-09-24T20:04:04.102Z,13.70
2022-09-24T20:06:33.973Z,13.70
2022-09-24T20:09:02.767Z,13.60
2022-09-24T20:11:32.732Z,13.60
2022-09-24T20:14:03.305Z,13.70
2022-09-24T20:16:32.597Z,13.70
2022-09-24T20:19:01.642Z,13.70
2022-09-24T20:21:35.369Z,13.40
2022-09-24T20:24:04.705Z,13.40
2022-09-24T20:26:52.189Z,13.40
2022-09-24T20:29:23.221Z,13.40
2022-09-24T20:31:53.418Z,13.30
2022-09-24T20:34:23.479Z,13.30
2022-09-24T20:36:51.994Z,13.20
2022-09-24T20:39:20.283Z,13.20
2022-09-24T20:41:49.423Z,13.20
2022-09-24T20:44:19.610Z,13.20
2022-09-24T20:46:49.027Z,13.10
2022-09-24T20:49:22.996Z,13.30
2022-09-24T20:51:56.503Z,13.00
2022-09-24T20:54:26.489Z,13.00
2022-09-24T20:56:54.998Z,13.10
2022-09-24T20:59:23.528Z,13.00
2022-09-24T21:01:53.189Z,13.00
2022-09-24T21:04:22.766Z,12.90
2022-09-24T21:06:51.588Z,12.90
2022-09-24T21:09:19.621Z,12.70
2022-09-24T21:11:47.879Z,12.70
2022-09-24T21:14:16.254Z,12.70
2022-09-24T21:16:44.313Z,12.80
2022-09-24T21:19:15.820Z,12.80
2022-09-24T21:21:43.950Z,12.80
2022-09-24T21:24:14.035Z,13.00
2022-09-24T21:26:42.722Z,13.10
2022-09-24T21:29:14.253Z,13.30
2022-09-24T21:31:44.396Z,13.40
2022-09-24T21:34:15.786Z,13.40
2022-09-24T21:36:45.707Z,13.40
2022-09-24T21:39:16.600Z,13.40
2022-09-24T21:41:45.131Z,13.40
2022-09-24T21:44:15.691Z,13.40
2022-09-24T21:46:43.915Z,13.40
2022-09-24T21:49:14.069Z,13.40
2022-09-24T21:51:43.340Z,13.40
2022-09-24T21:54:16.259Z,13.40
2022-09-24T21:56:44.686Z,13.40
2022-09-24T21:59:26.609Z,13.40
2022-09-24T22:01:55.104Z,13.40
2022-09-24T22:04:24.849Z,13.50
2022-09-24T22:06:53.666Z,13.50
2022-09-24T22:09:22.710Z,13.50
2022-09-24T22:11:51.538Z,13.40
2022-09-24T22:14:19.977Z,13.30
2022-09-24T22:16:48.106Z,13.30
2022-09-24T22:19:16.575Z,13.20
2022-09-24T22:21:46.183Z,13.30
2022-09-24T22:24:14.336Z,13.40
2022-09-24T22:26:42.539Z,13.20
2022-09-24T22:29:10.912Z,12.90
2022-09-24T22:31:39.082Z,12.90
2022-09-24T22:34:24.971Z,13.10
2022-09-24T22:36:54.556Z,13.20
2022-09-24T22:39:22.980Z,13.20
2022-09-24T22:41:52.528Z,13.20
2022-09-24T22:44:20.569Z,13.30
2022-09-24T22:46:48.856Z,13.20
2022-09-24T22:49:16.990Z,13.30
2022-09-24T22:51:44.998Z,13.40
2022-09-24T22:54:14.357Z,13.30
2022-09-24T22:56:42.752Z,13.30
2022-09-24T22:59:10.768Z,13.30
2022-09-24T23:01:42.239Z,13.30
2022-09-24T23:04:15.055Z,13.30
2022-09-24T23:06:43.857Z,13.00
2022-09-24T23:09:13.926Z,13.10
2022-09-24T23:11:42.100Z,13.10
2022-09-24T23:14:13.587Z,13.10
2022-09-24T23:16:43.761Z,13.10
2022-09-24T23:19:15.063Z,13.20
2022-09-24T23:21:43.343Z,13.00
2022-09-24T23:24:16.989Z,13.10
2022-09-24T23:26:45.598Z,13.10
2022-09-24T23:29:14.861Z,13.00
2022-09-24T23:31:43.198Z,13.00
2022-09-24T23:34:14.181Z,13.00
2022-09-24T23:36:43.242Z,13.10
2022-09-24T23:39:11.394Z,13.10
2022-09-24T23:41:40.891Z,13.10
2022-09-24T23:44:09.004Z,13.10
2022-09-24T23:46:37.222Z,13.20
2022-09-24T23:49:05.951Z,13.20
2022-09-24T23:51:33.938Z,13.20
2022-09-24T23:54:02.140Z,13.10
2022-09-24T23:56:30.151Z,13.20
2022-09-24T23:58:59.788Z,13.20
